Lake Wohlford (1030) Station Data

Red Flag Warning: No
Fire Weather Zone: 250
SDGE Region: North East
Lat/Lon: 33.178/-116.995

Observations

Time Wind Speed/Gust Temp(F) RH Fuel Moist Fuel Temp(F) Dewpt(F) Tmax(F) Tmin(F) Accum Precip 10-min Precip SL Press(mb)
3/29 8:00am 85 3 G 5 62° 26% - - 27° 65.6° 52.7° - - -
3/29 7:50am 97 4 G 5 62° 27% - - 27° 65.6° 52.7° - - -
3/29 7:40am 85 3 G 4 62° 24% - - 25° 65.6° 52.7° - - -
3/29 7:30am 286 1 G 2 65° 18% - - 21° 65.6° 52.7° - - -
3/29 7:20am 265 3 G 4 65° 16% - - 18° 65.6° 52.7° - - -
3/29 7:10am 64 3 G 6 63° 18% - - 19° 65° 52.7° - - -
3/29 7:00am 80 5 G 7 61° 21% - - 21° 62.5° 52.7° - - -
3/29 6:50am 79 5 G 6 61° 22% - - 22° 61.9° 52.7° - - -
3/29 6:40am 97 5 G 7 59° 25% - - 23° 61.9° 52.7° - - -
3/29 6:30am 86 5 G 8 61° 23% - - 22° 61.9° 52.7° - - -
3/29 6:20am 90 5 G 8 59° 25% - - 23° 61.9° 52.7° - - -
3/29 6:10am 90 5 G 6 59° 26% - - 24° 61.9° 52.7° - - -
3/29 6:00am 95 5 G 6 58° 28% - - 25° 61.9° 52.7° - - -
3/29 5:50am 84 5 G 6 60° 24% - - 23° 61.9° 52.7° - - -
3/29 5:40am 95 5 G 7 58° 29% - - 26° 61.9° 52.7° - - -
3/29 5:30am 85 5 G 6 59° 29% - - 26° 61.9° 52.7° - - -
3/29 5:20am 93 5 G 5 59° 30% - - 28° 61.9° 52.7° - - -
3/29 5:10am 88 6 G 7 58° 33% - - 29° 61.9° 52.7° - - -
3/29 5:00am 81 5 G 6 58° 30% - - 27° 61.9° 52.7° - - -
3/29 4:50am 94 6 G 7 56° 39% - - 31° 61.9° 52.7° - - -
3/29 4:40am 96 4 G 7 57° 35% - - 29° 61.9° 52.7° - - -
3/29 4:30am 102 7 G 8 55° 43% - - 33° 61.9° 52.7° - - -
3/29 4:20am 98 6 G 7 55° 42% - - 32° 61.9° 52.7° - - -
3/29 4:10am 95 6 G 7 56° 40% - - 32° 61.9° 52.7° - - -
3/29 4:00am 85 4 G 6 57° 38% - - 31° 61.9° 52.7° - - -
3/29 3:50am 91 5 G 6 56° 40% - - 32° 61.9° 52.7° - - -
3/29 3:40am 75 4 G 6 59° 33% - - 30° 61.9° 52.7° - - -
3/29 3:30am 96 2 G 4 58° 36% - - 31° 61.9° 52.7° - - -
3/29 3:20am 100 3 G 6 56° 41% - - 33° 61.9° 52.7° - - -
3/29 3:10am 90 5 G 7 55° 45% - - 34° 61.9° 52.7° - - -
3/29 3:00am 83 5 G 6 56° 43% - - 34° 61.9° 52.7° - - -
3/29 2:50am 64 4 G 6 56° 42% - - 34° 61.9° 52.7° - - -
3/29 2:40am 86 4 G 7 56° 44% - - 35° 61.9° 52.7° - - -
3/29 2:30am 49 4 G 7 59° 37% - - 33° 61.9° 52.7° - - -
3/29 2:20am 66 3 G 6 59° 39% - - 34° 61° 52.7° - - -
3/29 2:10am 87 3 G 5 60° 38% - - 34° 61° 52.7° - - -
3/29 2:00am 83 5 G 8 55° 50% - - 37° 59.3° 52.7° - - -
3/29 1:50am 85 5 G 8 57° 47% - - 37° 59.3° 52.7° - - -
3/29 1:40am 87 6 G 8 54° 55% - - 38° 59.3° 52.7° - - -
3/29 1:30am 86 4 G 6 56° 51% - - 38° 59.3° 53.5° - - -
3/29 1:20am 95 4 G 5 56° 54% - - 39° 59.3° 53.5° - - -
3/29 1:10am 93 5 G 5 55° 55% - - 39° 59.3° 53.5° - - -
3/29 1:00am 91 5 G 6 56° 54% - - 39° 59.3° 53.8° - - -
3/29 12:50am 92 3 G 4 57° 50% - - 39° 59.3° 54.5° - - -
3/29 12:40am 87 3 G 5 58° 49% - - 39° 59.3° 54.5° - - -
3/29 12:30am 82 4 G 6 58° 50% - - 39° 58.3° 54.5° - - -
3/29 12:20am 78 5 G 7 57° 53% - - 40° 57.7° 54.5° - - -
3/29 12:10am 81 5 G 7 55° 56% - - 40° 57.2° 54.5° - - -
3/29 12:00am 89 5 G 6 56° 55% - - 40° 70.5° 44.4° - - -
3/28 11:50pm 93 5 G 6 56° 56% - - 40° 70.5° 44.4° - - -
3/28 11:40pm 83 5 G 7 57° 54% - - 40° 70.5° 44.4° - - -
3/28 11:30pm 77 5 G 5 58° 52% - - 40° 70.5° 44.4° - - -
3/28 11:20pm 75 6 G 8 58° 51% - - 40° 70.5° 44.4° - - -
3/28 11:10pm 78 6 G 7 56° 56% - - 40° 70.5° 44.4° - - -
3/28 11:00pm 73 6 G 7 56° 55% - - 40° 70.5° 44.4° - - -
3/28 10:50pm 77 6 G 7 55° 57% - - 40° 70.5° 44.4° - - -
3/28 10:40pm 79 6 G 8 55° 58% - - 40° 70.5° 44.4° - - -
3/28 10:30pm 79 6 G 8 55° 57% - - 40° 70.5° 44.4° - - -
3/28 10:20pm 80 6 G 8 55° 57% - - 41° 70.5° 44.4° - - -
3/28 10:10pm 78 7 G 8 55° 59% - - 41° 70.5° 44.4° - - -
3/28 10:00pm 73 7 G 8 54° 59% - - 40° 70.5° 44.4° - - -
3/28 9:50pm 94 6 G 7 53° 63% - - 40° 70.5° 44.4° - - -
3/28 9:40pm 84 6 G 7 53° 61% - - 40° 70.5° 44.4° - - -
3/28 9:30pm 73 5 G 6 56° 55% - - 40° 70.5° 44.4° - - -
3/28 9:20pm 73 5 G 6 56° 55% - - 40° 70.5° 44.4° - - -
3/28 9:10pm 66 4 G 6 55° 57% - - 40° 70.5° 44.4° - - -
3/28 9:00pm 84 4 G 7 56° 53% - - 39° 70.5° 44.4° - - -
3/28 8:50pm 73 4 G 5 57° 50% - - 38° 70.5° 44.4° - - -
3/28 8:40pm 69 4 G 5 56° 51% - - 38° 70.5° 44.4° - - -
3/28 8:30pm 94 3 G 5 57° 50% - - 38° 70.5° 44.4° - - -
3/28 8:20pm 131 1 G 2 58° 47% - - 38° 70.5° 44.4° - - -
3/28 8:10pm 101 1 G 4 58° 46% - - 37° 70.5° 44.4° - - -
3/28 8:00pm 173 2 G 4 58° 46% - - 37° 70.5° 44.4° - - -
3/28 7:50pm 149 2 G 4 59° 46% - - 38° 70.5° 44.4° - - -
3/28 7:40pm 219 2 G 2 59° 45% - - 38° 70.5° 44.4° - - -
3/28 7:30pm 210 2 G 3 59° 45% - - 38° 70.5° 44.4° - - -
3/28 7:20pm 220 3 G 4 60° 44% - - 38° 70.5° 44.4° - - -
3/28 7:10pm 251 2 G 5 60° 40% - - 36° 70.5° 44.4° - - -
3/28 7:00pm 255 4 G 6 61° 37% - - 35° 70.5° 44.4° - - -
3/28 6:50pm 253 5 G 8 62° 37% - - 35° 70.5° 44.4° - - -
3/28 6:40pm 247 6 G 8 63° 38% - - 37° 70.5° 44.4° - - -
3/28 6:30pm 247 7 G 10 63° 38% - - 37° 70.5° 44.4° - - -
3/28 6:20pm 237 7 G 12 64° 39% - - 39° 70.5° 44.4° - - -
3/28 6:10pm 247 6 G 9 65° 38% - - 39° 70.5° 44.4° - - -
3/28 6:00pm 262 6 G 10 65° 38% - - 39° 70.5° 44.4° - - -
3/28 5:50pm 248 7 G 10 65° 34% - - 37° 70.5° 44.4° - - -
3/28 5:40pm 243 8 G 11 65° 33% - - 36° 70.5° 44.4° - - -
3/28 5:30pm 250 8 G 11 66° 35% - - 37° 70.5° 44.4° - - -
3/28 5:20pm 254 8 G 12 66° 36% - - 38° 70.5° 44.4° - - -
3/28 5:10pm 256 8 G 12 66° 37% - - 40° 70.5° 44.4° - - -
3/28 5:00pm 241 8 G 12 66° 37% - - 39° 70.5° 44.4° - - -
3/28 4:50pm 244 9 G 13 66° 36% - - 39° 70.5° 44.4° - - -
3/28 4:40pm 243 9 G 12 67° 36% - - 39° 70.5° 44.4° - - -
3/28 4:30pm 252 9 G 12 67° 38% - - 41° 70.5° 44.4° - - -
3/28 4:20pm 240 9 G 13 68° 38% - - 41° 70.5° 44.4° - - -
3/28 4:10pm 237 8 G 13 67° 38% - - 41° 70.5° 44.4° - - -
3/28 4:00pm 238 10 G 14 67° 37% - - 40° 70.5° 44.4° - - -
3/28 3:50pm 250 8 G 14 68° 36% - - 40° 70.5° 44.4° - - -
3/28 3:40pm 230 9 G 14 68° 36% - - 40° 70.5° 44.4° - - -
3/28 3:30pm 234 9 G 16 69° 33% - - 39° 70.5° 44.4° - - -
3/28 3:20pm 236 7 G 15 69° 33% - - 39° 70.5° 44.4° - - -
3/28 3:10pm 235 9 G 16 68° 34% - - 39° 70.3° 44.4° - - -
3/28 3:00pm 241 8 G 15 69° 35% - - 40° 70.3° 44.4° - - -
3/28 2:50pm 251 8 G 13 68° 35% - - 40° 70.2° 44.4° - - -
3/28 2:40pm 234 7 G 14 69° 34% - - 40° 70.2° 44.4° - - -
3/28 2:30pm 238 9 G 14 68° 35% - - 40° 70.2° 44.4° - - -
3/28 2:20pm 240 10 G 17 68° 36% - - 40° 70.2° 44.4° - - -
3/28 2:10pm 234 9 G 14 68° 37% - - 41° 70.2° 44.4° - - -
3/28 2:00pm 240 10 G 16 67° 40% - - 42° 70.2° 44.4° - - -
3/28 1:50pm 233 11 G 17 68° 35% - - 40° 70.2° 44.4° - - -
3/28 1:40pm 252 6 G 10 69° 31% - - 37° 70.1° 44.4° - - -
3/28 1:30pm 236 6 G 13 69° 28% - - 34° 70.1° 44.4° - - -
3/28 1:20pm 240 7 G 14 68° 29% - - 35° 69° 44.4° - - -
3/28 1:10pm 254 5 G 11 68° 28% - - 34° 69° 44.4° - - -
3/28 1:00pm 268 4 G 9 68° 27% - - 32° 69° 44.4° - - -
3/28 12:50pm 288 4 G 8 68° 25% - - 30° 69° 44.4° - - -
3/28 12:40pm 234 4 G 7 69° 24% - - 31° 69° 44.4° - - -
3/28 12:30pm 222 4 G 8 67° 25% - - 30° 68.5° 44.4° - - -
3/28 12:20pm 263 3 G 8 67° 26% - - 31° 68.5° 44.4° - - -
3/28 12:10pm 281 4 G 9 66° 26% - - 29° 66.1° 44.4° - - -
3/28 12:00pm 253 4 G 10 65° 27% - - 30° 66.1° 44.4° - - -
3/28 11:50am 289 4 G 9 65° 27% - - 30° 65.8° 44.4° - - -
3/28 11:40am 247 3 G 7 65° 26% - - 29° 65.8° 44.4° - - -
3/28 11:30am 256 5 G 8 64° 29% - - 30° 64° 44.4° - - -
3/28 11:20am 273 3 G 8 63° 31% - - 32° 63.6° 44.4° - - -
3/28 11:10am 267 3 G 7 63° 33% - - 33° 63.6° 44.4° - - -
3/28 11:00am 299 4 G 9 61° 35% - - 34° 61.8° 44.4° - - -
3/28 10:50am 307 6 G 13 61° 38% - - 35° 61.7° 44.4° - - -
3/28 10:40am 281 6 G 10 61° 40% - - 36° 61.4° 44.4° - - -
3/28 10:30am 286 5 G 8 61° 41% - - 37° 61.4° 44.4° - - -
3/28 10:20am 290 4 G 6 61° 41% - - 37° 61.4° 44.4° - - -
3/28 10:10am 295 4 G 7 59° 41% - - 36° 59.9° 44.4° - - -
3/28 10:00am 281 4 G 7 59° 45% - - 37° 59.4° 44.4° - - -
3/28 9:50am 272 4 G 8 59° 46% - - 38° 59° 44.4° - - -
3/28 9:40am 288 2 G 5 58° 47% - - 38° 58.7° 44.4° - - -
3/28 9:30am 270 3 G 4 57° 51% - - 39° 58.7° 44.4° - - -
3/28 9:20am 271 3 G 4 57° 53% - - 40° 58.7° 44.4° - - -
3/28 9:10am 272 3 G 4 56° 63% - - 44° 58.7° 44.4° - - -
3/28 9:00am 287 2 G 5 58° 56% - - 42° 58.7° 44.4° - - -
3/28 8:50am 93 3 G 5 56° 57% - - 41° 57.2° 44.4° - - -
3/28 8:40am 95 4 G 6 54° 65% - - 42° 55° 44.4° - - -
3/28 8:30am 90 6 G 7 52° 72% - - 43° 53° 44.4° - - -
3/28 8:20am 98 7 G 9 51° 73% - - 42° 51.1° 44.4° - - -
3/28 8:10am 97 6 G 8 50° 75% - - 42° 50.5° 44.4° - - -
3/28 8:00am 98 5 G 8 49° 75% - - 42° 50.5° 44.4° - - -
3/28 7:50am 83 3 G 4 50° 73% - - 42° 50.5° 44.4° - - -
3/28 7:40am 96 4 G 6 48° 75% - - 41° 50.5° 44.4° - - -
3/28 7:30am 92 4 G 7 47° 78% - - 41° 50.5° 44.4° - - -
3/28 7:20am 106 6 G 7 47° 81% - - 41° 50.5° 44.4° - - -
3/28 7:10am 85 4 G 7 46° 83% - - 41° 50.5° 44.4° - - -
3/28 7:00am 101 4 G 6 47° 81% - - 41° 50.5° 44.4° - - -
3/28 6:50am 25 2 G 4 48° 80% - - 42° 50.5° 44.4° - - -
3/28 6:40am 170 2 G 4 47° 81% - - 42° 50.5° 44.4° - - -
3/28 6:30am 273 3 G 5 48° 79% - - 42° 50.5° 44.4° - - -
3/28 6:20am 51 1 G 3 49° 75% - - 42° 50.5° 44.4° - - -
3/28 6:10am 17 2 G 3 48° 82% - - 43° 50.5° 44.4° - - -
3/28 6:00am 273 4 G 6 47° 83% - - 42° 50.5° 44.4° - - -